createdAt,value
2019-01-04T00:00:39.673Z,15.43
2019-01-04T00:03:30.163Z,15.47
2019-01-04T00:06:20.773Z,11.70
2019-01-04T00:09:10.663Z,13.10
2019-01-04T00:12:00.929Z,15.47
2019-01-04T00:14:51.627Z,18.00
2019-01-04T00:17:42.138Z,13.77
2019-01-04T00:20:32.362Z,13.43
2019-01-04T00:23:22.331Z,11.83
2019-01-04T00:26:13.154Z,14.13
2019-01-04T00:29:03.715Z,11.60
2019-01-04T00:31:53.783Z,10.40
2019-01-04T00:34:44.084Z,12.47
2019-01-04T00:37:34.378Z,15.97
2019-01-04T00:40:24.393Z,14.50
2019-01-04T00:43:14.474Z,16.13
2019-01-04T00:46:05.191Z,14.83
2019-01-04T00:48:55.375Z,15.87
2019-01-04T00:51:45.330Z,13.70
2019-01-04T00:54:35.746Z,13.93
2019-01-04T00:57:56.574Z,17.80
2019-01-04T01:01:20.612Z,26.20
2019-01-04T01:04:54.945Z,23.03
2019-01-04T01:08:20.214Z,11.97
2019-01-04T01:11:51.257Z,10.90
2019-01-04T01:15:25.424Z,17.23
2019-01-04T01:18:42.518Z,19.70
2019-01-04T01:22:27.274Z,14.20
2019-01-04T01:26:11.518Z,16.17
2019-01-04T01:29:32.198Z,14.33
2019-01-04T01:32:46.056Z,12.37
2019-01-04T01:36:24.864Z,12.67
2019-01-04T01:39:54.946Z,10.97
2019-01-04T01:43:31.530Z,10.57
2019-01-04T01:46:29.454Z,14.93
2019-01-04T01:49:53.689Z,14.13
2019-01-04T01:52:47.101Z,13.37
2019-01-04T01:55:37.430Z,17.00
2019-01-04T01:58:27.704Z,14.67
2019-01-04T02:01:17.721Z,13.13
2019-01-04T02:04:07.905Z,11.23
2019-01-04T02:06:58.451Z,15.47
2019-01-04T02:09:48.578Z,13.20
2019-01-04T02:12:39.451Z,14.73
2019-01-04T02:15:29.995Z,15.60
2019-01-04T02:18:20.282Z,15.27
2019-01-04T02:21:10.574Z,22.17
2019-01-04T02:24:00.861Z,17.93
2019-01-04T02:26:51.766Z,17.23
2019-01-04T02:29:41.939Z,11.00
2019-01-04T02:32:31.899Z,12.00
2019-01-04T02:35:22.214Z,9.13
2019-01-04T02:38:12.792Z,10.33
2019-01-04T02:41:03.250Z,10.80
2019-01-04T02:43:54.062Z,7.27
2019-01-04T02:46:44.088Z,12.40
2019-01-04T02:49:34.273Z,10.60
2019-01-04T02:52:25.121Z,13.10
2019-01-04T02:55:15.913Z,11.57
2019-01-04T02:58:06.210Z,9.53
2019-01-04T03:00:56.572Z,10.67
2019-01-04T03:03:46.830Z,10.03
2019-01-04T03:06:37.394Z,6.00
2019-01-04T03:09:27.709Z,9.17
2019-01-04T03:12:18.102Z,11.20
2019-01-04T03:15:08.416Z,5.90
2019-01-04T03:17:58.533Z,7.43
2019-01-04T03:20:48.740Z,7.33
2019-01-04T03:23:38.966Z,9.00
2019-01-04T03:26:29.286Z,11.43
2019-01-04T03:29:19.430Z,15.13
2019-01-04T03:32:09.740Z,13.27
2019-01-04T03:35:00.046Z,15.07
2019-01-04T03:37:50.479Z,8.57
2019-01-04T03:40:40.811Z,9.63
2019-01-04T03:43:30.845Z,13.47
2019-01-04T03:46:20.803Z,12.00
2019-01-04T03:49:11.117Z,12.57
2019-01-04T03:52:01.171Z,8.60
2019-01-04T03:54:51.494Z,12.03
2019-01-04T03:57:41.851Z,16.57
2019-01-04T04:00:32.293Z,12.53
2019-01-04T04:03:22.627Z,10.13
2019-01-04T04:06:12.946Z,15.53
2019-01-04T04:09:04.087Z,16.67
2019-01-04T04:11:54.062Z,8.93
2019-01-04T04:14:44.067Z,11.20
2019-01-04T04:17:34.950Z,10.70
2019-01-04T04:20:25.059Z,7.17
2019-01-04T04:23:15.410Z,8.23
2019-01-04T04:26:05.550Z,10.67
2019-01-04T04:28:56.379Z,14.60
2019-01-04T04:31:47.064Z,13.13
2019-01-04T04:34:37.582Z,12.10
2019-01-04T04:37:28.026Z,11.03
2019-01-04T04:40:18.462Z,11.03
2019-01-04T04:43:08.799Z,12.93
2019-01-04T04:45:59.034Z,12.60
2019-01-04T04:48:49.374Z,14.53
2019-01-04T04:51:39.726Z,13.20
2019-01-04T04:54:29.817Z,9.10
2019-01-04T04:57:19.886Z,9.63
2019-01-04T05:00:10.522Z,11.23
2019-01-04T05:03:00.862Z,16.00
2019-01-04T05:05:51.530Z,8.83
2019-01-04T05:08:42.083Z,9.80
2019-01-04T05:11:32.161Z,14.40
2019-01-04T05:14:22.183Z,13.27
2019-01-04T05:17:12.470Z,14.77
2019-01-04T05:20:02.421Z,12.30
2019-01-04T05:22:52.714Z,12.03
2019-01-04T05:25:43.010Z,15.13
2019-01-04T05:28:33.398Z,15.43
2019-01-04T05:31:23.801Z,17.13
2019-01-04T05:34:15.482Z,17.93
2019-01-04T05:37:06.029Z,15.90
2019-01-04T05:39:56.106Z,17.53
2019-01-04T05:42:46.341Z,15.63
2019-01-04T05:45:36.497Z,20.83
2019-01-04T05:48:27.257Z,17.73
2019-01-04T05:51:17.769Z,16.53
2019-01-04T05:54:07.763Z,20.80
2019-01-04T05:56:58.205Z,17.47
2019-01-04T05:59:48.422Z,11.77
2019-01-04T06:02:38.845Z,20.10
2019-01-04T06:05:29.049Z,21.87
2019-01-04T06:08:19.262Z,22.17
2019-01-04T06:11:09.505Z,19.17
2019-01-04T06:13:59.497Z,24.40
2019-01-04T06:16:49.722Z,21.17
2019-01-04T06:19:39.761Z,21.93
2019-01-04T06:22:29.921Z,20.37
2019-01-04T06:25:20.188Z,21.33
2019-01-04T06:28:11.085Z,25.90
2019-01-04T06:31:01.478Z,24.33
2019-01-04T06:33:51.554Z,28.83
2019-01-04T06:36:41.618Z,27.30
2019-01-04T06:39:31.622Z,27.80
2019-01-04T06:42:21.783Z,25.73
2019-01-04T06:45:12.618Z,28.50
2019-01-04T06:48:02.798Z,23.70
2019-01-04T06:50:52.907Z,33.67
2019-01-04T06:53:43.189Z,21.37
2019-01-04T06:56:33.386Z,26.53
2019-01-04T06:59:24.374Z,29.03
2019-01-04T07:02:15.177Z,30.10
2019-01-04T07:05:05.226Z,31.03
2019-01-04T07:07:55.251Z,29.40
2019-01-04T07:10:45.529Z,28.90
2019-01-04T07:13:35.475Z,31.23
2019-01-04T07:16:25.791Z,32.27
2019-01-04T07:19:16.001Z,32.23
2019-01-04T07:22:06.199Z,28.23
2019-01-04T07:24:56.303Z,29.20
2019-01-04T07:27:46.622Z,28.73
2019-01-04T07:30:36.966Z,29.17
2019-01-04T07:33:26.950Z,29.67
2019-01-04T07:36:17.374Z,31.27
2019-01-04T07:39:07.758Z,31.87
2019-01-04T07:41:57.678Z,31.30
2019-01-04T07:44:47.616Z,28.23
2019-01-04T07:47:38.016Z,29.97
2019-01-04T07:50:28.278Z,31.50
2019-01-04T07:53:18.689Z,30.13
2019-01-04T07:56:09.277Z,34.00
2019-01-04T07:58:59.310Z,28.33
2019-01-04T08:01:49.733Z,29.00
2019-01-04T08:04:39.798Z,34.30
2019-01-04T08:07:30.109Z,29.43
2019-01-04T08:10:20.391Z,28.63
2019-01-04T08:13:10.846Z,27.10
2019-01-04T08:16:00.867Z,32.17
2019-01-04T08:18:50.778Z,28.00
2019-01-04T08:21:41.275Z,23.80
2019-01-04T08:24:32.214Z,25.03
2019-01-04T08:27:22.556Z,31.50
2019-01-04T08:30:14.852Z,30.50
2019-01-04T08:33:05.617Z,25.07
2019-01-04T08:35:55.687Z,22.77
2019-01-04T08:38:45.701Z,20.70
2019-01-04T08:41:36.161Z,23.63
2019-01-04T08:44:26.601Z,25.17
2019-01-04T08:47:16.802Z,22.30
2019-01-04T08:50:08.802Z,23.60
2019-01-04T08:52:59.610Z,24.23
2019-01-04T08:55:49.872Z,22.50
2019-01-04T08:58:40.242Z,25.37
2019-01-04T09:01:30.715Z,23.57
2019-01-04T09:04:21.197Z,20.27
2019-01-04T09:07:11.487Z,22.90
2019-01-04T09:10:01.505Z,21.43
2019-01-04T09:12:51.587Z,25.70
2019-01-04T09:15:42.750Z,22.83
2019-01-04T09:18:33.019Z,21.40
2019-01-04T09:21:23.157Z,25.40
2019-01-04T09:24:13.422Z,21.17
2019-01-04T09:27:03.790Z,24.73
2019-01-04T09:29:54.215Z,19.43
2019-01-04T09:32:44.376Z,26.20
2019-01-04T09:35:34.608Z,22.10
2019-01-04T09:38:24.860Z,21.30
2019-01-04T09:41:36.054Z,31.13
2019-01-04T09:44:26.111Z,22.63
2019-01-04T09:47:16.305Z,26.43
2019-01-04T09:50:07.490Z,30.80
2019-01-04T09:52:57.790Z,25.77
2019-01-04T09:55:48.109Z,30.73
2019-01-04T09:58:38.546Z,28.67
2019-01-04T10:01:28.942Z,27.07
2019-01-04T10:04:19.158Z,28.90
2019-01-04T10:07:09.597Z,31.23
2019-01-04T10:10:00.015Z,28.43
2019-01-04T10:12:50.214Z,30.23
2019-01-04T10:15:40.450Z,25.87
2019-01-04T10:18:30.479Z,31.27
2019-01-04T10:21:20.675Z,29.37
2019-01-04T10:24:11.191Z,33.20
2019-01-04T10:27:02.562Z,34.17
2019-01-04T10:29:52.854Z,35.67
2019-01-04T10:32:42.886Z,38.33
2019-01-04T10:35:33.222Z,34.27
2019-01-04T10:38:23.751Z,37.50
2019-01-04T10:41:14.398Z,34.07
2019-01-04T10:44:05.245Z,34.03
2019-01-04T10:46:55.585Z,37.07
2019-01-04T10:49:45.522Z,36.57
2019-01-04T10:52:35.525Z,35.57
2019-01-04T10:55:26.161Z,42.30
2019-01-04T10:58:16.722Z,33.30
2019-01-04T11:01:06.870Z,38.10
2019-01-04T11:03:58.243Z,41.13
2019-01-04T11:06:48.415Z,44.23
2019-01-04T11:09:38.614Z,48.60
2019-01-04T11:12:28.878Z,42.00
2019-01-04T11:15:19.802Z,45.17
2019-01-04T11:18:10.071Z,42.63
2019-01-04T11:21:02.294Z,41.60
2019-01-04T11:24:30.665Z,45.13
2019-01-04T11:27:36.987Z,48.27
2019-01-04T11:30:49.870Z,47.27
2019-01-04T11:34:39.665Z,41.13
2019-01-04T11:38:02.401Z,44.97
2019-01-04T11:41:32.347Z,41.60
2019-01-04T11:44:45.507Z,40.00
2019-01-04T11:47:57.018Z,42.63
2019-01-04T11:51:14.362Z,42.53
2019-01-04T11:54:09.666Z,41.57
2019-01-04T11:56:59.678Z,44.57
2019-01-04T11:59:49.714Z,33.37
2019-01-04T12:02:39.853Z,41.50
2019-01-04T12:05:30.069Z,42.37
2019-01-04T12:08:20.086Z,39.23
2019-01-04T12:11:10.570Z,40.57
2019-01-04T12:14:00.962Z,36.93
2019-01-04T12:16:51.502Z,36.83
2019-01-04T12:19:41.642Z,41.30
2019-01-04T12:22:32.512Z,42.47
2019-01-04T12:25:22.855Z,45.07
2019-01-04T12:28:12.778Z,46.83
2019-01-04T12:31:03.135Z,46.57
2019-01-04T12:33:53.318Z,48.97
2019-01-04T12:36:43.379Z,44.73
2019-01-04T12:39:34.525Z,46.67
2019-01-04T12:42:25.070Z,49.67
2019-01-04T12:45:15.314Z,48.57
2019-01-04T12:48:05.483Z,42.10
2019-01-04T12:50:55.972Z,45.77
2019-01-04T12:53:46.297Z,39.53
2019-01-04T12:56:36.595Z,35.30
2019-01-04T12:59:27.360Z,44.33
2019-01-04T13:02:17.658Z,40.90
2019-01-04T13:05:07.810Z,42.00
2019-01-04T13:07:58.674Z,48.27
2019-01-04T13:10:50.400Z,44.87
2019-01-04T13:13:40.534Z,40.97
2019-01-04T13:16:30.934Z,45.47
2019-01-04T13:19:25.612Z,43.53
2019-01-04T13:22:12.491Z,42.60
2019-01-04T13:25:02.989Z,42.93
2019-01-04T13:27:53.871Z,43.83
2019-01-04T13:30:44.172Z,45.27
2019-01-04T13:33:34.490Z,38.43
2019-01-04T13:36:24.830Z,39.57
2019-01-04T13:39:15.433Z,76.63
2019-01-04T13:42:05.765Z,53.50
2019-01-04T13:44:55.866Z,67.63
2019-01-04T13:47:45.906Z,56.20
2019-01-04T13:50:35.859Z,40.87
2019-01-04T13:53:26.530Z,45.87
2019-01-04T13:56:16.957Z,37.17
2019-01-04T13:59:07.809Z,41.20
2019-01-04T14:01:58.011Z,38.97
2019-01-04T14:04:48.262Z,46.43
2019-01-04T14:07:38.494Z,42.50
2019-01-04T14:10:28.575Z,41.83
2019-01-04T14:13:18.812Z,45.70
2019-01-04T14:16:08.906Z,45.00
2019-01-04T14:18:59.335Z,40.63
2019-01-04T14:21:49.798Z,44.33
2019-01-04T14:24:40.226Z,40.63
2019-01-04T14:27:31.506Z,40.60
2019-01-04T14:30:22.778Z,40.27
2019-01-04T14:33:13.960Z,43.37
2019-01-04T14:36:04.270Z,40.83
2019-01-04T14:38:54.254Z,42.30
2019-01-04T14:41:44.658Z,41.53
2019-01-04T14:44:34.649Z,42.47
2019-01-04T14:47:25.475Z,40.77
2019-01-04T14:50:15.574Z,42.47
2019-01-04T14:53:06.920Z,41.93
2019-01-04T14:55:58.258Z,36.40
2019-01-04T14:58:48.626Z,36.50
2019-01-04T15:01:38.875Z,38.73
2019-01-04T15:04:28.997Z,26.67
2019-01-04T15:07:19.255Z,33.43
2019-01-04T15:10:10.077Z,36.00
2019-01-04T15:13:00.313Z,31.77
2019-01-04T15:15:50.734Z,31.63
2019-01-04T15:18:40.778Z,39.33
2019-01-04T15:21:30.733Z,36.57
2019-01-04T15:24:21.426Z,30.07
2019-01-04T15:27:11.802Z,32.97
2019-01-04T15:30:02.068Z,34.50
2019-01-04T15:32:53.401Z,29.97
2019-01-04T15:35:43.391Z,26.20
2019-01-04T15:38:36.279Z,26.73
2019-01-04T15:41:25.138Z,29.23
2019-01-04T15:44:15.210Z,28.57
2019-01-04T15:47:06.654Z,28.50
2019-01-04T15:49:57.195Z,30.60
2019-01-04T15:52:47.494Z,26.23
2019-01-04T15:55:38.395Z,30.40
2019-01-04T15:58:29.208Z,26.60
2019-01-04T16:01:19.538Z,38.83
2019-01-04T16:04:09.910Z,34.10
2019-01-04T16:07:00.212Z,28.60
2019-01-04T16:09:50.440Z,32.50
2019-01-04T16:12:40.714Z,34.13
2019-01-04T16:15:31.042Z,28.30
2019-01-04T16:18:21.198Z,29.03
2019-01-04T16:21:11.385Z,32.47
2019-01-04T16:24:01.435Z,28.43
2019-01-04T16:26:51.802Z,28.67
2019-01-04T16:29:41.910Z,40.80
2019-01-04T16:32:32.398Z,39.83
2019-01-04T16:35:22.513Z,34.10
2019-01-04T16:38:12.821Z,28.90
2019-01-04T16:41:02.941Z,40.77
2019-01-04T16:43:52.978Z,53.47
2019-01-04T16:46:42.965Z,41.70
2019-01-04T16:49:37.214Z,35.50
2019-01-04T16:52:27.251Z,39.80
2019-01-04T16:55:17.309Z,35.87
2019-01-04T16:58:07.631Z,37.50
2019-01-04T17:00:57.869Z,35.80
2019-01-04T17:03:48.234Z,34.97
2019-01-04T17:06:38.798Z,36.97
2019-01-04T17:09:29.269Z,39.73
2019-01-04T17:12:20.109Z,38.03
2019-01-04T17:15:10.135Z,48.23
2019-01-04T17:18:00.380Z,44.33
2019-01-04T17:20:50.738Z,46.20
2019-01-04T17:23:40.942Z,48.50
2019-01-04T17:26:31.336Z,47.67
2019-01-04T17:29:21.338Z,47.57
2019-01-04T17:32:11.515Z,46.63
2019-01-04T17:35:02.015Z,54.80
2019-01-04T17:37:52.386Z,47.73
2019-01-04T17:40:42.585Z,50.23
2019-01-04T17:43:32.522Z,45.50
2019-01-04T17:46:23.278Z,51.37
2019-01-04T17:49:13.493Z,49.50
2019-01-04T17:52:03.750Z,44.97
2019-01-04T17:54:54.292Z,51.30
2019-01-04T17:57:44.277Z,45.10
2019-01-04T18:00:34.567Z,46.50
2019-01-04T18:03:25.066Z,43.43
2019-01-04T18:06:15.161Z,49.50
2019-01-04T18:09:07.822Z,44.47
2019-01-04T18:11:58.321Z,45.70
2019-01-04T18:14:48.514Z,36.10
2019-01-04T18:17:38.748Z,37.37
2019-01-04T18:20:29.031Z,40.87
2019-01-04T18:23:19.285Z,41.60
2019-01-04T18:26:10.021Z,47.80
2019-01-04T18:29:00.109Z,37.73
2019-01-04T18:31:50.466Z,49.23
2019-01-04T18:34:40.598Z,40.93
2019-01-04T18:37:31.110Z,56.47
2019-01-04T18:40:21.437Z,52.23
2019-01-04T18:43:12.175Z,48.33
2019-01-04T18:46:02.194Z,49.30
2019-01-04T18:48:52.401Z,44.83
2019-01-04T18:51:42.562Z,48.77
2019-01-04T18:54:32.889Z,54.13
2019-01-04T18:57:22.977Z,42.97
2019-01-04T19:00:13.762Z,59.37
2019-01-04T19:03:03.819Z,61.90
2019-01-04T19:05:54.254Z,64.13
2019-01-04T19:08:44.542Z,42.20
2019-01-04T19:11:35.227Z,46.63
2019-01-04T19:14:25.781Z,41.00
2019-01-04T19:17:16.010Z,50.87
2019-01-04T19:20:06.241Z,44.47
2019-01-04T19:22:57.126Z,41.63
2019-01-04T19:25:47.322Z,47.60
2019-01-04T19:28:37.578Z,41.40
2019-01-04T19:31:27.955Z,49.10
2019-01-04T19:34:18.092Z,45.90
2019-01-04T19:37:08.485Z,45.07
2019-01-04T19:39:58.711Z,46.03
2019-01-04T19:42:49.010Z,47.70
2019-01-04T19:45:39.345Z,40.13
2019-01-04T19:48:29.729Z,43.20
2019-01-04T19:51:19.962Z,43.77
2019-01-04T19:54:10.219Z,46.40
2019-01-04T19:57:00.521Z,51.87
2019-01-04T19:59:50.562Z,43.17
2019-01-04T20:02:41.190Z,43.53
2019-01-04T20:06:40.609Z,49.97
2019-01-04T20:10:31.350Z,43.77
2019-01-04T20:14:45.046Z,52.73
2019-01-04T20:17:56.754Z,43.80
2019-01-04T20:21:17.822Z,43.00
2019-01-04T20:24:31.210Z,44.50
2019-01-04T20:27:40.190Z,40.53
2019-01-04T20:30:52.017Z,46.57
2019-01-04T20:34:07.566Z,38.97
2019-01-04T20:37:22.998Z,45.37
2019-01-04T20:40:35.288Z,43.57
2019-01-04T20:43:44.408Z,43.87
2019-01-04T20:47:02.380Z,45.57
2019-01-04T20:50:09.926Z,46.83
2019-01-04T20:53:28.857Z,51.83
2019-01-04T20:56:37.092Z,48.60
2019-01-04T20:59:45.146Z,44.40
2019-01-04T21:02:53.061Z,48.73
2019-01-04T21:06:08.530Z,42.37
2019-01-04T21:09:24.589Z,47.07
2019-01-04T21:12:33.689Z,42.23
2019-01-04T21:15:55.324Z,42.97
2019-01-04T21:19:04.886Z,50.63
2019-01-04T21:22:13.218Z,44.03
2019-01-04T21:25:22.208Z,45.03
2019-01-04T21:28:43.670Z,41.77
2019-01-04T21:32:02.618Z,48.23
2019-01-04T21:35:10.022Z,37.87
2019-01-04T21:38:20.817Z,42.33
2019-01-04T21:41:28.889Z,42.57
2019-01-04T21:44:44.190Z,40.97
2019-01-04T21:47:52.491Z,38.27
2019-01-04T21:51:01.858Z,37.50
2019-01-04T21:54:09.929Z,42.23
2019-01-04T21:57:19.201Z,38.53
2019-01-04T22:00:29.646Z,37.70
2019-01-04T22:03:42.005Z,35.70
2019-01-04T22:06:49.723Z,35.47
2019-01-04T22:09:53.133Z,31.80
2019-01-04T22:12:54.875Z,32.67
2019-01-04T22:16:05.402Z,38.37
2019-01-04T22:19:17.164Z,30.10
2019-01-04T22:22:41.478Z,29.17
2019-01-04T22:25:50.014Z,36.07
2019-01-04T22:29:00.553Z,35.07
2019-01-04T22:32:08.341Z,37.43
2019-01-04T22:35:08.267Z,36.23
2019-01-04T22:38:26.576Z,34.77
2019-01-04T22:41:35.794Z,35.50
2019-01-04T22:44:51.126Z,35.30
2019-01-04T22:47:59.989Z,33.20
2019-01-04T22:51:08.042Z,34.30
2019-01-04T22:54:16.575Z,33.90
2019-01-04T22:57:38.353Z,32.93
2019-01-04T23:00:54.833Z,37.17
2019-01-04T23:04:02.071Z,37.13
2019-01-04T23:07:23.726Z,35.87
2019-01-04T23:10:42.366Z,36.97
2019-01-04T23:13:50.079Z,41.57
2019-01-04T23:17:05.408Z,34.50
2019-01-04T23:20:26.658Z,34.60
2019-01-04T23:23:34.571Z,34.47
2019-01-04T23:26:42.591Z,36.07
2019-01-04T23:30:00.908Z,33.53
2019-01-04T23:33:07.139Z,33.70
2019-01-04T23:36:15.122Z,40.60
2019-01-04T23:39:28.505Z,40.37
2019-01-04T23:42:40.345Z,38.73
2019-01-04T23:45:48.866Z,40.40
2019-01-04T23:48:56.942Z,34.43
2019-01-04T23:52:21.321Z,34.97
2019-01-04T23:55:33.639Z,32.20
2019-01-04T23:58:40.124Z,30.03
